createdAt,value
2017-06-17T00:02:06.054Z,99.90
2017-06-17T00:04:33.853Z,99.90
2017-06-17T00:07:01.349Z,99.90
2017-06-17T00:09:28.867Z,99.90
2017-06-17T00:11:56.385Z,99.90
2017-06-17T00:14:25.009Z,99.90
2017-06-17T00:16:52.536Z,99.90
2017-06-17T00:19:20.047Z,99.90
2017-06-17T00:21:48.310Z,99.90
2017-06-17T00:26:44.673Z,99.90
2017-06-17T00:29:12.452Z,99.90
2017-06-17T00:31:40.711Z,99.90
2017-06-17T00:34:08.215Z,99.90
2017-06-17T00:36:35.740Z,99.90
2017-06-17T00:39:04.015Z,99.90
2017-06-17T00:41:31.792Z,99.90
2017-06-17T00:43:59.292Z,99.90
2017-06-17T00:46:26.797Z,99.90
2017-06-17T00:48:54.433Z,99.90
2017-06-17T00:51:21.929Z,99.90
2017-06-17T00:53:49.452Z,99.90
2017-06-17T00:56:16.953Z,99.90
2017-06-17T00:58:44.455Z,99.90
2017-06-17T01:01:12.729Z,99.90
2017-06-17T01:03:40.232Z,99.90
2017-06-17T01:06:08.606Z,99.90
2017-06-17T01:11:04.954Z,99.90
2017-06-17T01:13:32.466Z,99.90
2017-06-17T01:15:59.979Z,99.90
2017-06-17T01:23:25.586Z,99.90
2017-06-17T01:25:54.242Z,99.90
2017-06-17T01:28:22.151Z,99.90
2017-06-17T01:45:43.089Z,99.90
2017-06-17T01:53:10.276Z,99.90
2017-06-17T02:40:17.409Z,99.90
2017-06-17T02:42:45.175Z,99.90
2017-06-17T02:45:12.677Z,99.90
2017-06-17T02:47:40.161Z,99.90
2017-06-17T02:50:08.431Z,99.90
2017-06-17T02:52:35.928Z,99.90
2017-06-17T02:55:03.452Z,99.90
2017-06-17T02:57:30.943Z,99.90
2017-06-17T02:59:58.446Z,99.90
2017-06-17T03:02:25.966Z,99.90
2017-06-17T03:07:22.343Z,99.90
2017-06-17T03:09:49.835Z,99.90
2017-06-17T03:37:08.129Z,99.90
2017-06-17T03:49:31.077Z,99.90
2017-06-17T03:51:58.620Z,99.90
2017-06-17T04:58:57.280Z,99.90
2017-06-17T05:03:53.942Z,99.90
2017-06-17T05:06:22.993Z,99.90
2017-06-17T05:08:50.491Z,99.90
2017-06-17T05:16:15.936Z,99.90
2017-06-17T05:18:45.091Z,99.90
2017-06-17T05:46:02.022Z,99.90
2017-06-17T05:48:30.553Z,99.90
2017-06-17T05:50:58.051Z,99.90
2017-06-17T05:53:25.554Z,99.90
2017-06-17T05:55:53.060Z,99.90
2017-06-17T05:58:20.556Z,99.90
2017-06-17T06:00:49.610Z,99.90
2017-06-17T06:03:17.117Z,99.90
2017-06-17T06:05:44.628Z,99.90
2017-06-17T06:08:12.139Z,99.90
2017-06-17T06:10:39.636Z,99.90
2017-06-17T07:00:16.377Z,99.90
2017-06-17T07:02:45.039Z,99.90
2017-06-17T07:05:12.551Z,99.90
2017-06-17T07:07:40.054Z,99.90
2017-06-17T07:10:07.567Z,99.60
2017-06-17T07:12:35.065Z,99.90
2017-06-17T07:15:02.584Z,99.80
2017-06-17T07:24:57.525Z,99.10
2017-06-17T07:27:25.319Z,99.20
2017-06-17T07:29:53.957Z,99.10
2017-06-17T07:34:50.701Z,99.30
2017-06-17T07:37:18.218Z,99.60
2017-06-17T07:39:45.744Z,99.10
2017-06-17T07:52:09.819Z,99.10
2017-06-17T08:02:03.900Z,97.90
2017-06-17T08:04:31.431Z,97.90
2017-06-17T08:07:00.064Z,97.40
2017-06-17T08:09:27.567Z,97.10
2017-06-17T08:11:55.852Z,97.70
2017-06-17T08:16:53.362Z,98.30
2017-06-17T08:19:20.865Z,98.20
2017-06-17T08:21:48.361Z,97.80
2017-06-17T08:24:15.878Z,97.70
2017-06-17T08:26:43.397Z,97.60
2017-06-17T08:29:10.921Z,97.40
2017-06-17T08:31:38.437Z,97.00
2017-06-17T08:34:05.932Z,96.00
2017-06-17T08:36:33.441Z,96.70
2017-06-17T08:39:00.944Z,95.60
2017-06-17T08:41:28.468Z,97.10
2017-06-17T08:43:56.035Z,97.00
2017-06-17T08:46:24.315Z,96.40
2017-06-17T08:51:21.057Z,96.20
2017-06-17T08:53:49.730Z,96.90
2017-06-17T08:56:17.229Z,96.70
2017-06-17T09:03:43.215Z,96.30
2017-06-17T09:06:10.995Z,96.00
2017-06-17T09:08:38.497Z,96.10
2017-06-17T09:11:06.017Z,95.80
2017-06-17T09:13:33.536Z,96.60
2017-06-17T09:16:01.041Z,96.20
2017-06-17T09:18:28.582Z,96.20
2017-06-17T09:20:57.604Z,95.60
2017-06-17T09:38:18.745Z,95.50
2017-06-17T09:40:47.009Z,95.10
2017-06-17T09:43:14.590Z,95.10
2017-06-17T09:45:42.114Z,93.60
2017-06-17T09:48:09.635Z,92.80
2017-06-17T09:50:37.149Z,93.00
2017-06-17T09:53:04.666Z,91.40
2017-06-17T09:55:32.212Z,90.90
2017-06-17T09:57:59.733Z,90.10
2017-06-17T10:00:27.233Z,89.60
2017-06-17T10:02:54.743Z,90.30
2017-06-17T10:05:22.242Z,90.10
2017-06-17T10:07:49.751Z,88.80
2017-06-17T10:10:17.565Z,85.30
2017-06-17T10:12:45.078Z,81.40
2017-06-17T10:15:12.605Z,81.80
2017-06-17T10:17:40.121Z,84.10
2017-06-17T10:20:08.385Z,84.30
2017-06-17T10:22:35.933Z,84.50
2017-06-17T10:25:04.568Z,80.00
2017-06-17T10:27:32.068Z,81.70
2017-06-17T10:29:59.598Z,83.00
2017-06-17T10:32:27.096Z,82.40
2017-06-17T10:34:54.915Z,81.80
2017-06-17T10:37:22.405Z,82.70
2017-06-17T10:39:49.895Z,79.20
2017-06-17T10:42:17.396Z,79.70
2017-06-17T10:44:44.884Z,78.00
2017-06-17T10:47:12.647Z,78.10
2017-06-17T10:49:40.137Z,78.30
2017-06-17T10:52:07.651Z,76.10
2017-06-17T10:54:35.154Z,76.80
2017-06-17T10:57:02.657Z,75.00
2017-06-17T10:59:30.197Z,76.30
2017-06-17T11:01:58.870Z,72.60
2017-06-17T11:04:26.381Z,73.10
2017-06-17T11:06:55.050Z,73.30
2017-06-17T11:09:22.561Z,73.70
2017-06-17T11:11:50.132Z,73.40
2017-06-17T11:14:18.412Z,73.70
2017-06-17T11:16:45.930Z,73.80
2017-06-17T11:19:13.429Z,74.40
2017-06-17T11:21:41.710Z,74.40
2017-06-17T11:24:09.252Z,74.20
2017-06-17T11:26:36.757Z,76.50
2017-06-17T11:29:04.538Z,73.80
2017-06-17T11:31:32.046Z,73.80
2017-06-17T11:33:59.531Z,73.70
2017-06-17T11:36:27.032Z,74.30
2017-06-17T11:38:54.565Z,73.80
2017-06-17T11:41:22.106Z,73.60
2017-06-17T11:43:49.601Z,73.70
2017-06-17T11:46:17.101Z,73.30
2017-06-17T11:48:45.766Z,72.30
2017-06-17T11:51:13.279Z,72.70
2017-06-17T11:53:40.820Z,71.00
2017-06-17T11:56:08.328Z,71.60
2017-06-17T11:58:35.838Z,71.10
2017-06-17T12:01:03.348Z,72.40
2017-06-17T12:03:30.858Z,73.20
2017-06-17T12:05:58.392Z,71.40
2017-06-17T12:08:25.900Z,72.10
2017-06-17T12:10:53.406Z,71.50
2017-06-17T12:13:20.921Z,70.10
2017-06-17T12:15:49.556Z,70.40
2017-06-17T12:18:17.080Z,70.90
2017-06-17T12:20:44.590Z,70.80
2017-06-17T12:23:12.094Z,70.20
2017-06-17T12:25:39.620Z,71.20
2017-06-17T12:28:07.113Z,70.60
2017-06-17T12:30:34.666Z,69.40
2017-06-17T12:33:02.160Z,67.90
2017-06-17T12:35:29.677Z,68.10
2017-06-17T12:37:57.182Z,67.10
2017-06-17T12:40:24.688Z,66.30
2017-06-17T12:42:52.224Z,67.50
2017-06-17T12:45:19.728Z,67.30
2017-06-17T12:47:47.226Z,66.10
2017-06-17T12:50:14.741Z,66.10
2017-06-17T12:52:42.245Z,66.90
2017-06-17T12:55:09.764Z,66.40
2017-06-17T12:57:37.275Z,66.20
2017-06-17T13:00:05.537Z,64.50
2017-06-17T13:02:33.042Z,64.50
2017-06-17T13:05:00.574Z,63.80
2017-06-17T13:07:28.100Z,64.00
2017-06-17T13:09:55.613Z,65.10
2017-06-17T13:12:23.110Z,64.80
2017-06-17T13:14:50.621Z,64.30
2017-06-17T13:17:18.889Z,63.40
2017-06-17T13:19:46.425Z,63.30
2017-06-17T13:22:13.948Z,66.30
2017-06-17T13:24:41.452Z,65.60
2017-06-17T13:27:08.985Z,65.50
2017-06-17T13:29:36.497Z,63.20
2017-06-17T13:32:04.821Z,64.40
2017-06-17T13:34:32.330Z,64.30
2017-06-17T13:36:59.849Z,63.30
2017-06-17T13:39:27.375Z,65.10
2017-06-17T13:41:54.897Z,62.40
2017-06-17T13:44:23.189Z,63.20
2017-06-17T13:46:50.942Z,63.20
2017-06-17T13:49:19.228Z,65.00
2017-06-17T13:51:46.786Z,65.00
2017-06-17T13:54:15.052Z,63.70
2017-06-17T13:56:42.569Z,63.70
2017-06-17T13:59:10.072Z,64.20
2017-06-17T14:01:37.579Z,64.30
2017-06-17T14:04:05.106Z,64.70
2017-06-17T14:06:32.615Z,63.20
2017-06-17T14:09:00.133Z,63.20
2017-06-17T14:11:27.648Z,63.50
2017-06-17T14:13:55.160Z,64.30
2017-06-17T14:16:22.700Z,63.50
2017-06-17T14:18:50.228Z,64.70
2017-06-17T14:21:23.296Z,63.60
2017-06-17T14:23:51.937Z,63.60
2017-06-17T14:26:19.441Z,64.00
2017-06-17T14:28:46.976Z,61.60
2017-06-17T14:31:14.480Z,62.10
2017-06-17T14:33:42.016Z,62.50
2017-06-17T14:36:09.733Z,62.60
2017-06-17T14:38:38.005Z,62.90
2017-06-17T14:41:05.516Z,62.90
2017-06-17T14:43:33.015Z,62.20
2017-06-17T14:46:00.560Z,63.00
2017-06-17T14:48:28.067Z,61.80
2017-06-17T14:50:55.572Z,61.90
2017-06-17T14:53:23.092Z,62.50
2017-06-17T14:55:50.592Z,63.20
2017-06-17T14:58:18.117Z,63.10
2017-06-17T15:00:45.625Z,62.60
2017-06-17T15:03:13.116Z,61.80
2017-06-17T15:05:40.636Z,62.40
2017-06-17T15:08:08.159Z,63.20
2017-06-17T15:10:35.701Z,63.30
2017-06-17T15:13:03.208Z,64.10
2017-06-17T15:15:30.760Z,64.70
2017-06-17T15:17:58.293Z,63.00
2017-06-17T15:20:25.788Z,63.40
2017-06-17T15:22:53.327Z,64.10
2017-06-17T15:27:49.716Z,64.40
2017-06-17T15:30:17.217Z,64.10
2017-06-17T15:32:44.738Z,64.10
2017-06-17T15:35:12.264Z,64.70
2017-06-17T15:37:39.761Z,64.20
2017-06-17T15:40:08.038Z,63.40
2017-06-17T15:42:35.551Z,63.50
2017-06-17T15:45:03.059Z,62.20
2017-06-17T15:47:31.349Z,63.40
2017-06-17T15:49:58.842Z,63.40
2017-06-17T15:52:26.341Z,63.80
2017-06-17T15:54:53.866Z,63.90
2017-06-17T15:57:23.550Z,63.70
2017-06-17T15:59:51.089Z,64.00
2017-06-17T16:02:18.603Z,63.90
2017-06-17T16:04:46.110Z,64.20
2017-06-17T16:07:13.660Z,63.60
2017-06-17T16:09:41.185Z,63.00
2017-06-17T16:12:08.705Z,63.40
2017-06-17T16:14:36.234Z,63.40
2017-06-17T16:17:03.761Z,63.30
2017-06-17T16:19:31.300Z,63.70
2017-06-17T16:21:58.802Z,63.50
2017-06-17T16:24:26.329Z,63.70
2017-06-17T16:26:53.841Z,64.10
2017-06-17T16:29:21.355Z,64.10
2017-06-17T16:31:48.861Z,63.70
2017-06-17T16:34:17.134Z,63.20
2017-06-17T16:36:44.706Z,63.20
2017-06-17T16:39:12.218Z,63.20
2017-06-17T16:41:39.714Z,63.70
2017-06-17T16:44:07.984Z,63.90
2017-06-17T16:46:35.507Z,63.90
2017-06-17T16:49:03.045Z,63.80
2017-06-17T16:51:30.564Z,63.90
2017-06-17T16:53:58.068Z,63.70
2017-06-17T16:56:25.582Z,63.60
2017-06-17T16:58:53.098Z,63.80
2017-06-17T17:01:20.624Z,64.60
2017-06-17T17:03:48.901Z,64.90
2017-06-17T17:06:16.435Z,64.90
2017-06-17T17:08:44.079Z,64.80
2017-06-17T17:11:12.352Z,64.80
2017-06-17T17:13:39.891Z,64.70
2017-06-17T17:16:07.398Z,65.40
2017-06-17T17:18:34.884Z,64.90
2017-06-17T17:21:02.402Z,65.60
2017-06-17T17:23:29.908Z,65.90
2017-06-17T17:25:57.455Z,65.40
2017-06-17T17:28:24.945Z,65.80
2017-06-17T17:30:52.453Z,65.60
2017-06-17T17:33:19.981Z,65.80
2017-06-17T17:35:47.482Z,65.80
2017-06-17T17:38:15.025Z,65.50
2017-06-17T17:40:42.542Z,66.30
2017-06-17T17:43:10.053Z,65.80
2017-06-17T17:45:37.566Z,66.40
2017-06-17T17:48:05.062Z,66.50
2017-06-17T17:50:32.599Z,66.20
2017-06-17T17:53:00.097Z,66.80
2017-06-17T17:55:28.381Z,66.70
2017-06-17T17:57:55.901Z,66.70
2017-06-17T18:00:23.409Z,66.30
2017-06-17T18:02:50.946Z,66.20
2017-06-17T18:05:18.460Z,66.40
2017-06-17T18:07:45.953Z,66.60
2017-06-17T18:10:13.473Z,66.30
2017-06-17T18:12:41.024Z,67.00
2017-06-17T18:15:08.548Z,67.80
2017-06-17T18:17:36.813Z,67.20
2017-06-17T18:20:04.324Z,67.20
2017-06-17T18:22:31.849Z,67.70
2017-06-17T18:24:59.352Z,68.30
2017-06-17T18:27:26.884Z,68.70
2017-06-17T18:29:54.393Z,68.80
2017-06-17T18:32:21.896Z,69.20
2017-06-17T18:34:49.400Z,70.10
2017-06-17T18:37:16.905Z,69.90
2017-06-17T18:39:45.220Z,69.60
2017-06-17T18:42:12.742Z,69.60
2017-06-17T18:44:41.037Z,69.90
2017-06-17T18:47:08.547Z,69.80
2017-06-17T18:49:36.065Z,70.90
2017-06-17T18:52:03.767Z,70.70
2017-06-17T18:54:31.255Z,71.30
2017-06-17T18:56:59.525Z,71.40
2017-06-17T18:59:27.797Z,71.40
2017-06-17T19:01:55.301Z,71.80
2017-06-17T19:04:22.848Z,72.10
2017-06-17T19:06:50.365Z,72.40
2017-06-17T19:09:17.882Z,72.50
2017-06-17T19:11:45.404Z,72.50
2017-06-17T19:14:13.695Z,74.10
2017-06-17T19:16:41.208Z,74.10
2017-06-17T19:19:08.749Z,73.90
2017-06-17T19:21:36.251Z,74.50
2017-06-17T19:24:03.764Z,75.00
2017-06-17T19:26:31.280Z,75.70
2017-06-17T19:28:59.567Z,76.50
2017-06-17T19:31:27.101Z,76.60
2017-06-17T19:33:54.608Z,77.70
2017-06-17T19:36:22.110Z,78.00
2017-06-17T19:38:49.645Z,78.00
2017-06-17T19:41:17.146Z,78.80
2017-06-17T19:43:44.680Z,79.00
2017-06-17T19:46:12.174Z,79.50
2017-06-17T19:48:39.699Z,80.80
2017-06-17T19:51:07.218Z,81.50
2017-06-17T19:53:34.719Z,81.50
2017-06-17T19:56:02.267Z,82.50
2017-06-17T19:58:29.781Z,83.20
2017-06-17T20:00:57.304Z,82.80
2017-06-17T20:03:24.970Z,83.00
2017-06-17T20:05:52.473Z,83.80
2017-06-17T20:08:20.004Z,84.50
2017-06-17T20:10:47.513Z,85.10
2017-06-17T20:13:15.028Z,85.30
2017-06-17T20:15:42.559Z,85.50
2017-06-17T20:18:10.090Z,85.90
2017-06-17T20:20:37.658Z,86.00
2017-06-17T20:23:05.169Z,85.90
2017-06-17T20:25:33.470Z,86.30
2017-06-17T20:28:00.977Z,86.30
2017-06-17T20:30:28.489Z,86.60
2017-06-17T20:32:56.019Z,87.00
2017-06-17T20:35:24.309Z,87.60
2017-06-17T20:37:51.830Z,87.50
2017-06-17T20:40:19.346Z,87.80
2017-06-17T20:42:46.843Z,87.90
2017-06-17T20:45:14.401Z,88.50
2017-06-17T20:47:41.900Z,88.90
2017-06-17T20:50:09.421Z,89.80
2017-06-17T20:52:36.944Z,89.80
2017-06-17T20:55:04.616Z,89.80
2017-06-17T20:57:32.173Z,89.80
2017-06-17T20:59:59.691Z,90.00
2017-06-17T21:02:27.291Z,90.20
2017-06-17T21:04:54.811Z,90.40
2017-06-17T21:07:22.325Z,90.60
2017-06-17T21:09:49.866Z,90.30
2017-06-17T21:12:17.362Z,90.20
2017-06-17T21:14:45.109Z,90.20
2017-06-17T21:17:12.644Z,90.50
2017-06-17T21:19:40.169Z,90.40
2017-06-17T21:22:07.716Z,90.80
2017-06-17T21:24:35.204Z,91.00
2017-06-17T21:27:02.701Z,91.30
2017-06-17T21:29:30.234Z,91.60
2017-06-17T21:31:57.725Z,91.60
2017-06-17T21:34:25.249Z,91.60
2017-06-17T21:36:53.521Z,92.30
2017-06-17T21:39:21.024Z,92.10
2017-06-17T21:41:48.552Z,92.30
2017-06-17T21:44:16.057Z,93.10
2017-06-17T21:46:43.617Z,93.20
2017-06-17T21:49:11.132Z,93.20
2017-06-17T21:51:38.647Z,93.50
2017-06-17T21:54:06.168Z,93.90
2017-06-17T21:56:33.687Z,93.80
2017-06-17T21:59:01.989Z,93.80
2017-06-17T22:01:29.502Z,93.80
2017-06-17T22:03:57.017Z,93.80
2017-06-17T22:06:24.536Z,94.00
2017-06-17T22:08:52.049Z,94.10
2017-06-17T22:11:19.581Z,93.90
2017-06-17T22:13:47.076Z,94.40
2017-06-17T22:16:14.581Z,94.50
2017-06-17T22:18:42.097Z,94.50
2017-06-17T22:21:09.597Z,94.80
2017-06-17T22:23:37.122Z,94.80
2017-06-17T22:26:04.624Z,94.90
2017-06-17T22:28:32.133Z,95.20
2017-06-17T22:30:59.651Z,95.40
2017-06-17T22:33:27.152Z,95.60
2017-06-17T22:35:54.679Z,96.00
2017-06-17T22:38:22.177Z,96.60
2017-06-17T22:40:49.705Z,96.60
2017-06-17T22:43:17.249Z,96.80
2017-06-17T22:45:44.753Z,96.90
2017-06-17T22:48:12.286Z,97.10
2017-06-17T22:50:39.781Z,97.10
2017-06-17T22:53:07.280Z,97.20
2017-06-17T22:55:35.554Z,97.30
2017-06-17T22:58:03.072Z,97.30
2017-06-17T23:00:30.596Z,97.00
2017-06-17T23:02:58.085Z,97.00
2017-06-17T23:05:25.594Z,96.90
2017-06-17T23:07:53.108Z,97.00
2017-06-17T23:10:20.609Z,97.00
2017-06-17T23:12:48.140Z,97.10
2017-06-17T23:15:15.644Z,97.20
2017-06-17T23:17:43.161Z,97.40
2017-06-17T23:20:10.681Z,97.70
2017-06-17T23:22:38.208Z,97.70
2017-06-17T23:25:05.749Z,98.00
2017-06-17T23:27:33.247Z,98.20
2017-06-17T23:30:00.736Z,98.10
2017-06-17T23:32:28.265Z,98.30
2017-06-17T23:34:55.770Z,98.30
2017-06-17T23:37:23.381Z,98.90
2017-06-17T23:39:50.888Z,98.90
2017-06-17T23:42:18.391Z,99.20
2017-06-17T23:44:46.692Z,99.00
2017-06-17T23:47:14.192Z,99.00
2017-06-17T23:49:41.700Z,99.00
2017-06-17T23:52:09.213Z,99.30
2017-06-17T23:54:36.740Z,99.40
2017-06-17T23:57:04.288Z,99.40
2017-06-17T23:59:31.793Z,99.60
